sensor_id;sensor_type;location;lat;lon;timestamp;P1;durP1;ratioP1;P2;durP2;ratioP2
11767;SDS011;5941;57.652;12.514;2023-07-28T00:02:00;711.83;;;675.07;;
11767;SDS011;5941;57.652;12.514;2023-07-28T00:04:26;723.03;;;685.30;;
11767;SDS011;5941;57.652;12.514;2023-07-28T00:06:52;704.67;;;669.17;;
11767;SDS011;5941;57.652;12.514;2023-07-28T00:09:18;776.50;;;731.93;;
11767;SDS011;5941;57.652;12.514;2023-07-28T00:11:44;724.00;;;686.63;;
11767;SDS011;5941;57.652;12.514;2023-07-28T00:14:10;720.97;;;682.83;;
11767;SDS011;5941;57.652;12.514;2023-07-28T00:16:36;742.33;;;702.67;;
11767;SDS011;5941;57.652;12.514;2023-07-28T00:19:02;764.80;;;722.07;;
11767;SDS011;5941;57.652;12.514;2023-07-28T00:21:28;779.77;;;736.63;;
11767;SDS011;5941;57.652;12.514;2023-07-28T00:23:54;739.43;;;700.30;;
11767;SDS011;5941;57.652;12.514;2023-07-28T00:26:20;782.50;;;738.63;;
11767;SDS011;5941;57.652;12.514;2023-07-28T00:28:46;784.30;;;740.17;;
11767;SDS011;5941;57.652;12.514;2023-07-28T00:31:12;784.80;;;740.43;;
11767;SDS011;5941;57.652;12.514;2023-07-28T00:33:38;796.43;;;751.00;;
11767;SDS011;5941;57.652;12.514;2023-07-28T00:36:04;768.97;;;726.50;;
11767;SDS011;5941;57.652;12.514;2023-07-28T00:38:30;707.93;;;672.23;;
11767;SDS011;5941;57.652;12.514;2023-07-28T00:40:57;709.50;;;673.50;;
11767;SDS011;5941;57.652;12.514;2023-07-28T00:43:23;710.50;;;674.73;;
11767;SDS011;5941;57.652;12.514;2023-07-28T00:45:49;718.80;;;681.53;;
11767;SDS011;5941;57.652;12.514;2023-07-28T00:48:15;748.00;;;708.20;;
11767;SDS011;5941;57.652;12.514;2023-07-28T00:50:43;744.17;;;704.97;;
11767;SDS011;5941;57.652;12.514;2023-07-28T00:53:10;744.23;;;704.50;;
11767;SDS011;5941;57.652;12.514;2023-07-28T00:55:37;756.80;;;716.83;;
11767;SDS011;5941;57.652;12.514;2023-07-28T00:58:03;765.13;;;723.27;;
11767;SDS011;5941;57.652;12.514;2023-07-28T01:00:29;736.90;;;698.27;;
11767;SDS011;5941;57.652;12.514;2023-07-28T01:02:56;764.03;;;722.03;;
11767;SDS011;5941;57.652;12.514;2023-07-28T01:05:22;787.63;;;742.80;;
11767;SDS011;5941;57.652;12.514;2023-07-28T01:08:36;745.73;;;705.83;;
11767;SDS011;5941;57.652;12.514;2023-07-28T01:10:41;698.40;;;663.63;;
11767;SDS011;5941;57.652;12.514;2023-07-28T01:13:07;700.23;;;665.37;;
11767;SDS011;5941;57.652;12.514;2023-07-28T01:15:33;723.17;;;686.03;;
11767;SDS011;5941;57.652;12.514;2023-07-28T01:17:59;714.27;;;678.17;;
11767;SDS011;5941;57.652;12.514;2023-07-28T01:20:27;766.73;;;724.47;;
11767;SDS011;5941;57.652;12.514;2023-07-28T01:25:43;693.73;;;659.27;;
11767;SDS011;5941;57.652;12.514;2023-07-28T01:28:12;714.23;;;678.07;;
11767;SDS011;5941;57.652;12.514;2023-07-28T01:30:39;702.27;;;667.13;;
11767;SDS011;5941;57.652;12.514;2023-07-28T01:33:05;709.90;;;674.17;;
11767;SDS011;5941;57.652;12.514;2023-07-28T01:35:32;728.70;;;689.77;;
11767;SDS011;5941;57.652;12.514;2023-07-28T01:37:58;710.70;;;674.43;;
11767;SDS011;5941;57.652;12.514;2023-07-28T01:40:24;748.30;;;708.00;;
11767;SDS011;5941;57.652;12.514;2023-07-28T01:42:50;718.50;;;681.87;;
11767;SDS011;5941;57.652;12.514;2023-07-28T01:45:16;789.63;;;745.53;;
11767;SDS011;5941;57.652;12.514;2023-07-28T01:47:42;726.93;;;689.00;;
11767;SDS011;5941;57.652;12.514;2023-07-28T01:50:08;695.63;;;660.83;;
11767;SDS011;5941;57.652;12.514;2023-07-28T01:52:34;717.87;;;680.53;;
11767;SDS011;5941;57.652;12.514;2023-07-28T01:55:00;719.17;;;681.90;;
11767;SDS011;5941;57.652;12.514;2023-07-28T01:57:27;721.00;;;684.17;;
11767;SDS011;5941;57.652;12.514;2023-07-28T01:59:53;730.63;;;692.50;;
11767;SDS011;5941;57.652;12.514;2023-07-28T02:02:19;716.50;;;680.03;;
11767;SDS011;5941;57.652;12.514;2023-07-28T02:04:45;747.67;;;707.90;;
11767;SDS011;5941;57.652;12.514;2023-07-28T02:07:11;757.50;;;716.67;;
11767;SDS011;5941;57.652;12.514;2023-07-28T02:09:37;750.83;;;711.37;;
11767;SDS011;5941;57.652;12.514;2023-07-28T02:12:03;756.33;;;715.50;;
11767;SDS011;5941;57.652;12.514;2023-07-28T02:14:29;757.87;;;717.33;;
11767;SDS011;5941;57.652;12.514;2023-07-28T02:16:55;811.90;;;764.53;;
11767;SDS011;5941;57.652;12.514;2023-07-28T02:19:21;813.83;;;767.07;;
11767;SDS011;5941;57.652;12.514;2023-07-28T02:21:47;749.37;;;709.20;;
11767;SDS011;5941;57.652;12.514;2023-07-28T02:24:14;741.63;;;702.47;;
11767;SDS011;5941;57.652;12.514;2023-07-28T02:26:40;726.00;;;688.40;;
11767;SDS011;5941;57.652;12.514;2023-07-28T02:29:06;762.80;;;721.47;;
11767;SDS011;5941;57.652;12.514;2023-07-28T02:31:32;747.33;;;707.67;;
11767;SDS011;5941;57.652;12.514;2023-07-28T02:33:58;750.27;;;710.30;;
11767;SDS011;5941;57.652;12.514;2023-07-28T02:36:24;803.47;;;757.73;;
11767;SDS011;5941;57.652;12.514;2023-07-28T02:38:50;749.57;;;709.10;;
11767;SDS011;5941;57.652;12.514;2023-07-28T02:41:16;794.80;;;749.80;;
11767;SDS011;5941;57.652;12.514;2023-07-28T02:43:42;770.57;;;727.97;;
11767;SDS011;5941;57.652;12.514;2023-07-28T02:46:08;791.80;;;747.17;;
11767;SDS011;5941;57.652;12.514;2023-07-28T02:48:34;776.47;;;734.10;;
11767;SDS011;5941;57.652;12.514;2023-07-28T02:51:00;731.17;;;693.37;;
11767;SDS011;5941;57.652;12.514;2023-07-28T02:53:26;745.57;;;705.93;;
11767;SDS011;5941;57.652;12.514;2023-07-28T02:55:52;806.77;;;760.40;;
11767;SDS011;5941;57.652;12.514;2023-07-28T02:58:19;768.73;;;726.53;;
11767;SDS011;5941;57.652;12.514;2023-07-28T03:00:45;790.43;;;745.07;;
11767;SDS011;5941;57.652;12.514;2023-07-28T03:03:11;815.47;;;768.27;;
11767;SDS011;5941;57.652;12.514;2023-07-28T03:05:38;793.77;;;748.97;;
11767;SDS011;5941;57.652;12.514;2023-07-28T03:08:04;808.50;;;762.20;;
11767;SDS011;5941;57.652;12.514;2023-07-28T03:10:30;761.43;;;720.67;;
11767;SDS011;5941;57.652;12.514;2023-07-28T03:12:56;789.97;;;745.03;;
11767;SDS011;5941;57.652;12.514;2023-07-28T03:15:22;825.83;;;776.33;;
11767;SDS011;5941;57.652;12.514;2023-07-28T03:17:49;839.93;;;791.37;;
11767;SDS011;5941;57.652;12.514;2023-07-28T03:20:15;767.67;;;725.70;;
11767;SDS011;5941;57.652;12.514;2023-07-28T03:22:41;816.37;;;768.77;;
11767;SDS011;5941;57.652;12.514;2023-07-28T03:25:07;819.07;;;771.23;;
11767;SDS011;5941;57.652;12.514;2023-07-28T03:27:33;743.60;;;703.00;;
11767;SDS011;5941;57.652;12.514;2023-07-28T03:29:59;781.73;;;737.73;;
11767;SDS011;5941;57.652;12.514;2023-07-28T03:32:25;765.57;;;723.33;;
11767;SDS011;5941;57.652;12.514;2023-07-28T03:34:51;802.93;;;755.67;;
11767;SDS011;5941;57.652;12.514;2023-07-28T03:37:17;812.47;;;765.07;;
11767;SDS011;5941;57.652;12.514;2023-07-28T03:39:44;811.60;;;764.60;;
11767;SDS011;5941;57.652;12.514;2023-07-28T03:42:10;777.40;;;734.60;;
11767;SDS011;5941;57.652;12.514;2023-07-28T03:44:36;780.87;;;737.43;;
11767;SDS011;5941;57.652;12.514;2023-07-28T03:47:03;807.83;;;762.43;;
11767;SDS011;5941;57.652;12.514;2023-07-28T03:49:29;814.17;;;767.40;;
11767;SDS011;5941;57.652;12.514;2023-07-28T03:51:55;804.87;;;759.13;;
11767;SDS011;5941;57.652;12.514;2023-07-28T03:54:21;800.43;;;754.63;;
11767;SDS011;5941;57.652;12.514;2023-07-28T03:56:47;816.77;;;768.37;;
11767;SDS011;5941;57.652;12.514;2023-07-28T03:59:13;823.30;;;775.47;;
11767;SDS011;5941;57.652;12.514;2023-07-28T04:01:39;844.10;;;794.50;;
11767;SDS011;5941;57.652;12.514;2023-07-28T04:04:05;839.23;;;790.10;;
11767;SDS011;5941;57.652;12.514;2023-07-28T04:06:41;816.47;;;768.73;;
11767;SDS011;5941;57.652;12.514;2023-07-28T04:09:07;825.20;;;777.87;;
11767;SDS011;5941;57.652;12.514;2023-07-28T04:11:34;834.87;;;786.13;;
11767;SDS011;5941;57.652;12.514;2023-07-28T04:14:00;832.67;;;784.20;;
11767;SDS011;5941;57.652;12.514;2023-07-28T04:16:26;819.03;;;770.63;;
11767;SDS011;5941;57.652;12.514;2023-07-28T04:18:52;828.07;;;780.10;;
11767;SDS011;5941;57.652;12.514;2023-07-28T04:21:18;842.30;;;793.23;;
11767;SDS011;5941;57.652;12.514;2023-07-28T04:23:44;836.57;;;787.37;;
11767;SDS011;5941;57.652;12.514;2023-07-28T04:26:09;884.50;;;828.73;;
11767;SDS011;5941;57.652;12.514;2023-07-28T04:28:35;882.10;;;828.10;;
11767;SDS011;5941;57.652;12.514;2023-07-28T04:31:01;857.30;;;806.50;;
11767;SDS011;5941;57.652;12.514;2023-07-28T04:33:27;835.97;;;785.57;;
11767;SDS011;5941;57.652;12.514;2023-07-28T04:35:53;854.07;;;803.23;;
11767;SDS011;5941;57.652;12.514;2023-07-28T04:38:19;757.97;;;717.10;;
11767;SDS011;5941;57.652;12.514;2023-07-28T04:40:45;728.70;;;690.77;;
11767;SDS011;5941;57.652;12.514;2023-07-28T04:43:11;749.33;;;709.57;;
11767;SDS011;5941;57.652;12.514;2023-07-28T04:45:37;737.90;;;698.83;;
11767;SDS011;5941;57.652;12.514;2023-07-28T04:48:03;735.87;;;696.90;;
11767;SDS011;5941;57.652;12.514;2023-07-28T04:50:29;782.33;;;738.13;;
11767;SDS011;5941;57.652;12.514;2023-07-28T04:52:57;833.73;;;784.03;;
11767;SDS011;5941;57.652;12.514;2023-07-28T04:55:23;854.17;;;801.73;;
11767;SDS011;5941;57.652;12.514;2023-07-28T04:57:49;850.63;;;798.57;;
11767;SDS011;5941;57.652;12.514;2023-07-28T05:00:16;784.47;;;740.43;;
11767;SDS011;5941;57.652;12.514;2023-07-28T05:02:42;796.97;;;751.47;;
11767;SDS011;5941;57.652;12.514;2023-07-28T05:05:08;765.57;;;723.80;;
11767;SDS011;5941;57.652;12.514;2023-07-28T05:07:34;835.00;;;783.97;;
11767;SDS011;5941;57.652;12.514;2023-07-28T05:10:00;793.27;;;747.77;;
11767;SDS011;5941;57.652;12.514;2023-07-28T05:12:26;762.60;;;720.13;;
11767;SDS011;5941;57.652;12.514;2023-07-28T05:14:52;842.23;;;789.67;;
11767;SDS011;5941;57.652;12.514;2023-07-28T05:17:18;888.03;;;830.27;;
11767;SDS011;5941;57.652;12.514;2023-07-28T05:19:44;839.97;;;789.17;;
11767;SDS011;5941;57.652;12.514;2023-07-28T05:22:10;758.73;;;717.87;;
11767;SDS011;5941;57.652;12.514;2023-07-28T05:24:36;828.40;;;777.40;;
11767;SDS011;5941;57.652;12.514;2023-07-28T05:27:02;827.43;;;775.97;;
11767;SDS011;5941;57.652;12.514;2023-07-28T05:29:28;789.73;;;742.87;;
11767;SDS011;5941;57.652;12.514;2023-07-28T05:31:54;762.97;;;720.60;;
11767;SDS011;5941;57.652;12.514;2023-07-28T05:34:20;793.50;;;748.27;;
11767;SDS011;5941;57.652;12.514;2023-07-28T05:36:46;799.67;;;753.87;;
11767;SDS011;5941;57.652;12.514;2023-07-28T05:39:12;814.67;;;766.57;;
11767;SDS011;5941;57.652;12.514;2023-07-28T05:41:38;805.77;;;759.60;;
11767;SDS011;5941;57.652;12.514;2023-07-28T05:44:04;836.20;;;787.20;;
11767;SDS011;5941;57.652;12.514;2023-07-28T05:46:30;829.53;;;780.53;;
11767;SDS011;5941;57.652;12.514;2023-07-28T05:48:57;800.77;;;753.53;;
11767;SDS011;5941;57.652;12.514;2023-07-28T05:51:23;753.23;;;711.27;;
11767;SDS011;5941;57.652;12.514;2023-07-28T05:53:49;819.47;;;770.63;;
11767;SDS011;5941;57.652;12.514;2023-07-28T05:56:15;837.17;;;784.60;;
11767;SDS011;5941;57.652;12.514;2023-07-28T05:58:43;849.03;;;796.67;;
11767;SDS011;5941;57.652;12.514;2023-07-28T06:01:09;854.93;;;802.03;;
11767;SDS011;5941;57.652;12.514;2023-07-28T06:03:34;836.30;;;786.03;;
11767;SDS011;5941;57.652;12.514;2023-07-28T06:06:00;880.83;;;824.73;;
11767;SDS011;5941;57.652;12.514;2023-07-28T06:08:27;910.40;;;849.80;;
11767;SDS011;5941;57.652;12.514;2023-07-28T06:10:53;896.70;;;839.43;;
11767;SDS011;5941;57.652;12.514;2023-07-28T06:13:19;866.23;;;811.67;;
11767;SDS011;5941;57.652;12.514;2023-07-28T06:15:46;862.47;;;809.00;;
11767;SDS011;5941;57.652;12.514;2023-07-28T06:18:12;874.20;;;818.43;;
11767;SDS011;5941;57.652;12.514;2023-07-28T06:20:41;922.97;;;860.93;;
11767;SDS011;5941;57.652;12.514;2023-07-28T06:23:07;938.43;;;873.93;;
11767;SDS011;5941;57.652;12.514;2023-07-28T06:25:33;933.50;;;871.13;;
11767;SDS011;5941;57.652;12.514;2023-07-28T06:27:59;952.20;;;886.63;;
11767;SDS011;5941;57.652;12.514;2023-07-28T06:30:25;1999.90;;;999.90;;
11767;SDS011;5941;57.652;12.514;2023-07-28T06:32:51;1999.90;;;999.90;;
11767;SDS011;5941;57.652;12.514;2023-07-28T06:35:17;1999.90;;;999.90;;
11767;SDS011;5941;57.652;12.514;2023-07-28T06:37:43;1999.90;;;999.90;;
11767;SDS011;5941;57.652;12.514;2023-07-28T06:40:09;1999.90;;;999.90;;
11767;SDS011;5941;57.652;12.514;2023-07-28T06:42:35;1999.90;;;999.90;;
11767;SDS011;5941;57.652;12.514;2023-07-28T06:45:02;1999.90;;;999.90;;
11767;SDS011;5941;57.652;12.514;2023-07-28T06:47:28;1999.90;;;999.90;;
11767;SDS011;5941;57.652;12.514;2023-07-28T06:49:54;1999.90;;;999.90;;
11767;SDS011;5941;57.652;12.514;2023-07-28T06:52:20;1999.90;;;999.90;;
11767;SDS011;5941;57.652;12.514;2023-07-28T06:54:46;1999.90;;;999.90;;
11767;SDS011;5941;57.652;12.514;2023-07-28T06:57:14;1999.90;;;999.90;;
11767;SDS011;5941;57.652;12.514;2023-07-28T06:59:40;1999.90;;;999.90;;
11767;SDS011;5941;57.652;12.514;2023-07-28T07:02:06;1999.90;;;999.90;;
11767;SDS011;5941;57.652;12.514;2023-07-28T07:04:34;1999.90;;;999.90;;
11767;SDS011;5941;57.652;12.514;2023-07-28T07:07:00;1999.90;;;999.90;;
11767;SDS011;5941;57.652;12.514;2023-07-28T07:09:25;1999.90;;;999.90;;
11767;SDS011;5941;57.652;12.514;2023-07-28T07:11:52;1999.90;;;999.90;;
11767;SDS011;5941;57.652;12.514;2023-07-28T07:14:18;1999.90;;;999.90;;
11767;SDS011;5941;57.652;12.514;2023-07-28T07:16:44;1999.90;;;999.90;;
11767;SDS011;5941;57.652;12.514;2023-07-28T07:19:10;1999.90;;;999.90;;
11767;SDS011;5941;57.652;12.514;2023-07-28T07:21:36;1999.90;;;999.90;;
11767;SDS011;5941;57.652;12.514;2023-07-28T07:24:03;1999.90;;;999.90;;
11767;SDS011;5941;57.652;12.514;2023-07-28T07:26:29;1999.90;;;999.90;;
11767;SDS011;5941;57.652;12.514;2023-07-28T07:28:56;1999.90;;;999.90;;
11767;SDS011;5941;57.652;12.514;2023-07-28T07:31:22;1221.13;;;847.70;;
11767;SDS011;5941;57.652;12.514;2023-07-28T07:33:48;876.60;;;822.13;;
11767;SDS011;5941;57.652;12.514;2023-07-28T07:36:15;794.23;;;749.57;;
11767;SDS011;5941;57.652;12.514;2023-07-28T07:38:41;823.63;;;775.13;;
11767;SDS011;5941;57.652;12.514;2023-07-28T07:41:08;823.10;;;775.53;;
11767;SDS011;5941;57.652;12.514;2023-07-28T07:43:36;808.10;;;762.30;;
11767;SDS011;5941;57.652;12.514;2023-07-28T07:46:02;894.60;;;836.90;;
11767;SDS011;5941;57.652;12.514;2023-07-28T07:48:28;1279.63;;;904.87;;
11767;SDS011;5941;57.652;12.514;2023-07-28T07:50:54;803.00;;;757.37;;
11767;SDS011;5941;57.652;12.514;2023-07-28T07:53:20;879.13;;;821.67;;
11767;SDS011;5941;57.652;12.514;2023-07-28T07:55:46;870.53;;;815.93;;
11767;SDS011;5941;57.652;12.514;2023-07-28T07:58:12;901.40;;;842.60;;
11767;SDS011;5941;57.652;12.514;2023-07-28T08:00:38;897.30;;;839.50;;
11767;SDS011;5941;57.652;12.514;2023-07-28T08:03:04;923.07;;;861.93;;
11767;SDS011;5941;57.652;12.514;2023-07-28T08:05:30;882.53;;;826.13;;
11767;SDS011;5941;57.652;12.514;2023-07-28T08:07:56;801.77;;;756.90;;
11767;SDS011;5941;57.652;12.514;2023-07-28T08:10:22;685.40;;;651.43;;
11767;SDS011;5941;57.652;12.514;2023-07-28T08:12:48;751.70;;;711.20;;
11767;SDS011;5941;57.652;12.514;2023-07-28T08:15:14;760.97;;;719.80;;
11767;SDS011;5941;57.652;12.514;2023-07-28T08:17:40;791.07;;;747.10;;
11767;SDS011;5941;57.652;12.514;2023-07-28T08:20:07;764.33;;;723.17;;
11767;SDS011;5941;57.652;12.514;2023-07-28T08:22:33;721.57;;;684.07;;
11767;SDS011;5941;57.652;12.514;2023-07-28T08:24:59;818.90;;;770.67;;
11767;SDS011;5941;57.652;12.514;2023-07-28T08:27:25;773.00;;;730.53;;
11767;SDS011;5941;57.652;12.514;2023-07-28T08:29:51;778.60;;;735.57;;
11767;SDS011;5941;57.652;12.514;2023-07-28T08:32:17;744.37;;;704.93;;
11767;SDS011;5941;57.652;12.514;2023-07-28T08:34:43;695.47;;;661.10;;
11767;SDS011;5941;57.652;12.514;2023-07-28T08:37:09;700.20;;;665.77;;
11767;SDS011;5941;57.652;12.514;2023-07-28T08:39:35;711.03;;;675.47;;
11767;SDS011;5941;57.652;12.514;2023-07-28T08:42:01;739.77;;;700.60;;
11767;SDS011;5941;57.652;12.514;2023-07-28T08:44:34;723.80;;;687.05;;
11767;SDS011;5941;57.652;12.514;2023-07-28T08:47:00;627.00;;;598.50;;
11767;SDS011;5941;57.652;12.514;2023-07-28T08:49:26;683.43;;;649.60;;
11767;SDS011;5941;57.652;12.514;2023-07-28T08:51:52;643.15;;;612.83;;
11767;SDS011;5941;57.652;12.514;2023-07-28T08:54:20;695.47;;;660.47;;
11767;SDS011;5941;57.652;12.514;2023-07-28T08:56:47;760.10;;;718.58;;
11767;SDS011;5941;57.652;12.514;2023-07-28T08:59:20;645.75;;;615.17;;
11767;SDS011;5941;57.652;12.514;2023-07-28T09:01:46;626.10;;;597.13;;
11767;SDS011;5941;57.652;12.514;2023-07-28T09:04:12;637.13;;;607.85;;
11767;SDS011;5941;57.652;12.514;2023-07-28T09:06:38;665.80;;;634.05;;
11767;SDS011;5941;57.652;12.514;2023-07-28T09:09:07;648.22;;;617.33;;
11767;SDS011;5941;57.652;12.514;2023-07-28T09:11:33;662.78;;;631.42;;
11767;SDS011;5941;57.652;12.514;2023-07-28T09:13:59;631.60;;;602.35;;
11767;SDS011;5941;57.652;12.514;2023-07-28T09:16:26;671.97;;;639.33;;
11767;SDS011;5941;57.652;12.514;2023-07-28T09:19:04;685.17;;;651.65;;
11767;SDS011;5941;57.652;12.514;2023-07-28T09:21:30;684.85;;;651.05;;
11767;SDS011;5941;57.652;12.514;2023-07-28T09:23:58;714.17;;;678.03;;
11767;SDS011;5941;57.652;12.514;2023-07-28T09:26:30;663.58;;;632.00;;
11767;SDS011;5941;57.652;12.514;2023-07-28T09:29:09;745.83;;;706.10;;
11767;SDS011;5941;57.652;12.514;2023-07-28T09:31:36;686.65;;;652.78;;
11767;SDS011;5941;57.652;12.514;2023-07-28T09:34:01;668.20;;;635.58;;
11767;SDS011;5941;57.652;12.514;2023-07-28T09:36:27;606.55;;;578.47;;
11767;SDS011;5941;57.652;12.514;2023-07-28T09:38:54;679.95;;;646.28;;
11767;SDS011;5941;57.652;12.514;2023-07-28T09:41:20;660.53;;;628.80;;
11767;SDS011;5941;57.652;12.514;2023-07-28T09:43:46;678.75;;;645.67;;
11767;SDS011;5941;57.652;12.514;2023-07-28T09:46:14;674.10;;;640.78;;
11767;SDS011;5941;57.652;12.514;2023-07-28T09:48:44;675.25;;;641.60;;
11767;SDS011;5941;57.652;12.514;2023-07-28T09:51:17;682.63;;;649.13;;
11767;SDS011;5941;57.652;12.514;2023-07-28T09:53:46;672.28;;;639.83;;
11767;SDS011;5941;57.652;12.514;2023-07-28T09:56:14;675.22;;;641.95;;
11767;SDS011;5941;57.652;12.514;2023-07-28T09:58:44;684.75;;;651.17;;
11767;SDS011;5941;57.652;12.514;2023-07-28T10:01:11;694.70;;;660.30;;
11767;SDS011;5941;57.652;12.514;2023-07-28T10:03:37;686.25;;;652.83;;
11767;SDS011;5941;57.652;12.514;2023-07-28T10:06:03;678.63;;;645.10;;
11767;SDS011;5941;57.652;12.514;2023-07-28T10:08:30;690.55;;;656.42;;
11767;SDS011;5941;57.652;12.514;2023-07-28T10:10:57;684.10;;;650.22;;
11767;SDS011;5941;57.652;12.514;2023-07-28T10:13:23;535.97;;;512.90;;
11767;SDS011;5941;57.652;12.514;2023-07-28T10:15:49;651.72;;;619.38;;
11767;SDS011;5941;57.652;12.514;2023-07-28T10:18:17;616.75;;;588.13;;
11767;SDS011;5941;57.652;12.514;2023-07-28T10:20:45;511.05;;;489.00;;
11767;SDS011;5941;57.652;12.514;2023-07-28T10:23:15;611.53;;;583.80;;
11767;SDS011;5941;57.652;12.514;2023-07-28T10:25:42;679.67;;;646.33;;
11767;SDS011;5941;57.652;12.514;2023-07-28T10:30:54;630.90;;;601.63;;
11767;SDS011;5941;57.652;12.514;2023-07-28T10:35:53;484.13;;;464.17;;
11767;SDS011;5941;57.652;12.514;2023-07-28T10:38:31;631.55;;;601.80;;
11767;SDS011;5941;57.652;12.514;2023-07-28T10:41:05;635.22;;;605.42;;
11767;SDS011;5941;57.652;12.514;2023-07-28T10:43:32;607.25;;;579.10;;
11767;SDS011;5941;57.652;12.514;2023-07-28T10:45:59;590.97;;;564.03;;
11767;SDS011;5941;57.652;12.514;2023-07-28T10:48:25;691.03;;;657.05;;
11767;SDS011;5941;57.652;12.514;2023-07-28T10:50:51;681.55;;;647.35;;
11767;SDS011;5941;57.652;12.514;2023-07-28T10:53:17;514.25;;;492.40;;
11767;SDS011;5941;57.652;12.514;2023-07-28T10:55:43;642.30;;;611.55;;
11767;SDS011;5941;57.652;12.514;2023-07-28T10:58:09;663.92;;;631.33;;
11767;SDS011;5941;57.652;12.514;2023-07-28T11:00:36;703.03;;;667.28;;
11767;SDS011;5941;57.652;12.514;2023-07-28T11:03:02;647.38;;;616.88;;
11767;SDS011;5941;57.652;12.514;2023-07-28T11:05:28;715.28;;;678.35;;
11767;SDS011;5941;57.652;12.514;2023-07-28T11:07:57;706.40;;;670.17;;
11767;SDS011;5941;57.652;12.514;2023-07-28T11:10:24;580.22;;;554.10;;
11767;SDS011;5941;57.652;12.514;2023-07-28T11:12:51;511.98;;;490.15;;
11767;SDS011;5941;57.652;12.514;2023-07-28T11:15:18;563.92;;;538.92;;
11767;SDS011;5941;57.652;12.514;2023-07-28T11:17:48;533.50;;;510.63;;
11767;SDS011;5941;57.652;12.514;2023-07-28T11:22:44;545.58;;;522.22;;
11767;SDS011;5941;57.652;12.514;2023-07-28T11:25:10;602.75;;;575.13;;
11767;SDS011;5941;57.652;12.514;2023-07-28T11:27:37;642.88;;;611.85;;
11767;SDS011;5941;57.652;12.514;2023-07-28T11:30:03;572.58;;;547.10;;
11767;SDS011;5941;57.652;12.514;2023-07-28T11:32:30;531.97;;;509.13;;
11767;SDS011;5941;57.652;12.514;2023-07-28T11:35:06;544.58;;;520.97;;
11767;SDS011;5941;57.652;12.514;2023-07-28T11:37:33;648.42;;;617.45;;
11767;SDS011;5941;57.652;12.514;2023-07-28T11:40:04;661.90;;;630.08;;
11767;SDS011;5941;57.652;12.514;2023-07-28T11:42:36;539.08;;;515.72;;
11767;SDS011;5941;57.652;12.514;2023-07-28T11:45:06;494.92;;;474.30;;
11767;SDS011;5941;57.652;12.514;2023-07-28T11:47:32;621.88;;;592.80;;
11767;SDS011;5941;57.652;12.514;2023-07-28T11:49:58;561.30;;;536.20;;
11767;SDS011;5941;57.652;12.514;2023-07-28T11:52:30;606.08;;;577.72;;
11767;SDS011;5941;57.652;12.514;2023-07-28T11:54:56;639.50;;;609.67;;
11767;SDS011;5941;57.652;12.514;2023-07-28T11:57:22;529.20;;;506.92;;
11767;SDS011;5941;57.652;12.514;2023-07-28T11:59:48;529.90;;;507.15;;
11767;SDS011;5941;57.652;12.514;2023-07-28T12:02:14;530.03;;;507.50;;
11767;SDS011;5941;57.652;12.514;2023-07-28T12:04:40;587.90;;;561.40;;
11767;SDS011;5941;57.652;12.514;2023-07-28T12:07:15;604.75;;;577.10;;
11767;SDS011;5941;57.652;12.514;2023-07-28T12:12:18;663.65;;;631.40;;
11767;SDS011;5941;57.652;12.514;2023-07-28T12:14:44;537.80;;;514.60;;
11767;SDS011;5941;57.652;12.514;2023-07-28T12:17:23;548.17;;;524.28;;
11767;SDS011;5941;57.652;12.514;2023-07-28T12:22:35;551.47;;;527.67;;
11767;SDS011;5941;57.652;12.514;2023-07-28T12:25:01;511.02;;;489.50;;
11767;SDS011;5941;57.652;12.514;2023-07-28T12:27:27;601.65;;;574.17;;
11767;SDS011;5941;57.652;12.514;2023-07-28T12:29:53;533.60;;;510.75;;
11767;SDS011;5941;57.652;12.514;2023-07-28T12:32:19;531.28;;;508.55;;
11767;SDS011;5941;57.652;12.514;2023-07-28T12:34:45;597.10;;;569.72;;
11767;SDS011;5941;57.652;12.514;2023-07-28T12:37:11;509.80;;;488.52;;
11767;SDS011;5941;57.652;12.514;2023-07-28T12:39:38;572.70;;;547.45;;
11767;SDS011;5941;57.652;12.514;2023-07-28T12:42:07;597.28;;;570.15;;
11767;SDS011;5941;57.652;12.514;2023-07-28T12:44:34;530.13;;;507.75;;
11767;SDS011;5941;57.652;12.514;2023-07-28T12:47:00;570.28;;;545.35;;
11767;SDS011;5941;57.652;12.514;2023-07-28T12:49:26;552.75;;;528.80;;
11767;SDS011;5941;57.652;12.514;2023-07-28T12:51:54;528.30;;;505.95;;
11767;SDS011;5941;57.652;12.514;2023-07-28T12:54:21;564.53;;;539.70;;
11767;SDS011;5941;57.652;12.514;2023-07-28T12:56:47;576.80;;;551.25;;
11767;SDS011;5941;57.652;12.514;2023-07-28T12:59:13;533.35;;;510.98;;
11767;SDS011;5941;57.652;12.514;2023-07-28T13:01:39;509.48;;;488.08;;
11767;SDS011;5941;57.652;12.514;2023-07-28T13:04:05;563.17;;;538.58;;
11767;SDS011;5941;57.652;12.514;2023-07-28T13:06:31;516.83;;;495.13;;
11767;SDS011;5941;57.652;12.514;2023-07-28T13:08:58;548.08;;;524.38;;
11767;SDS011;5941;57.652;12.514;2023-07-28T13:11:24;579.90;;;554.08;;
11767;SDS011;5941;57.652;12.514;2023-07-28T13:13:50;534.70;;;511.75;;
11767;SDS011;5941;57.652;12.514;2023-07-28T13:16:15;524.17;;;501.65;;
11767;SDS011;5941;57.652;12.514;2023-07-28T13:18:42;517.20;;;495.27;;
11767;SDS011;5941;57.652;12.514;2023-07-28T13:21:08;532.83;;;509.90;;
11767;SDS011;5941;57.652;12.514;2023-07-28T13:23:36;545.28;;;521.67;;
11767;SDS011;5941;57.652;12.514;2023-07-28T13:26:02;517.85;;;496.08;;
11767;SDS011;5941;57.652;12.514;2023-07-28T13:28:31;600.20;;;572.92;;
11767;SDS011;5941;57.652;12.514;2023-07-28T13:30:57;589.50;;;563.05;;
11767;SDS011;5941;57.652;12.514;2023-07-28T13:33:23;650.35;;;618.58;;
11767;SDS011;5941;57.652;12.514;2023-07-28T13:35:49;567.13;;;542.00;;
11767;SDS011;5941;57.652;12.514;2023-07-28T13:38:15;580.53;;;554.42;;
11767;SDS011;5941;57.652;12.514;2023-07-28T13:40:41;622.35;;;593.25;;
11767;SDS011;5941;57.652;12.514;2023-07-28T13:43:07;527.65;;;505.38;;
11767;SDS011;5941;57.652;12.514;2023-07-28T13:45:33;530.67;;;508.17;;
11767;SDS011;5941;57.652;12.514;2023-07-28T13:47:59;556.58;;;532.53;;
11767;SDS011;5941;57.652;12.514;2023-07-28T13:50:25;569.63;;;544.10;;
11767;SDS011;5941;57.652;12.514;2023-07-28T13:52:51;556.70;;;532.47;;
11767;SDS011;5941;57.652;12.514;2023-07-28T13:55:17;532.88;;;510.08;;
11767;SDS011;5941;57.652;12.514;2023-07-28T13:57:43;545.40;;;521.95;;
11767;SDS011;5941;57.652;12.514;2023-07-28T14:00:09;538.92;;;515.65;;
11767;SDS011;5941;57.652;12.514;2023-07-28T14:02:36;526.90;;;504.52;;
11767;SDS011;5941;57.652;12.514;2023-07-28T14:05:03;635.85;;;605.80;;
11767;SDS011;5941;57.652;12.514;2023-07-28T14:07:30;513.25;;;491.50;;
11767;SDS011;5941;57.652;12.514;2023-07-28T14:09:56;571.33;;;546.17;;